Time;durP1;ratioP1;P1;durP2;ratioP2;P2;SDS_P1;SDS_P2;PMS_P1;PMS_P2;Temp;Humidity;BMP_temperature;BMP_pressure;BME280_temperature;BME280_humidity;BME280_pressure;Samples;Min_cycle;Max_cycle;Signal;HPM_P1;HPM_P2
2022/12/31 00:01:24;;;;;;;1.50;0.77;;;;;;;11.27;100.00;100392.84;5055956;27;97106;-30
2022/12/31 00:03:50;;;;;;;2.08;0.70;;;;;;;11.29;100.00;100387.31;5054997;27;100687;-31
2022/12/31 00:06:20;;;;;;;5.25;0.95;;;;;;;11.28;100.00;100389.19;5055341;27;96708;-30
2022/12/31 00:08:47;;;;;;;0.88;0.73;;;;;;;11.33;100.00;100396.97;5055191;27;96742;-31
2022/12/31 00:11:13;;;;;;;1.83;0.82;;;;;;;11.33;100.00;100403.25;5056627;27;97465;-30
2022/12/31 00:13:39;;;;;;;3.05;0.70;;;;;;;11.32;100.00;100398.84;5055154;27;100901;-30
2022/12/31 00:16:10;;;;;;;0.88;0.47;;;;;;;11.35;100.00;100395.03;5056547;27;96889;-31
2022/12/31 00:18:36;;;;;;;0.73;0.70;;;;;;;11.32;100.00;100390.69;5055552;27;96809;-31
2022/12/31 00:21:08;;;;;;;1.05;0.70;;;;;;;11.31;100.00;100399.78;5056117;27;97957;-30
2022/12/31 00:23:35;;;;;;;1.20;0.88;;;;;;;11.34;100.00;100407.69;5053968;27;101069;-31
2022/12/31 00:26:16;;;;;;;3.90;1.40;;;;;;;11.31;100.00;100402.50;5055941;27;96657;-30
2022/12/31 00:28:42;;;;;;;2.03;1.27;;;;;;;11.32;100.00;100406.97;5054909;27;96912;-31
2022/12/31 00:31:20;;;;;;;2.88;1.00;;;;;;;11.34;100.00;100401.41;5054557;27;101008;-32
2022/12/31 00:33:45;;;;;;;1.15;0.73;;;;;;;11.31;100.00;100399.78;5054617;27;101262;-31
2022/12/31 00:36:22;;;;;;;1.95;0.63;;;;;;;11.31;100.00;100401.63;5055942;27;96704;-30
2022/12/31 00:38:49;;;;;;;0.95;0.60;;;;;;;11.32;100.00;100393.41;5054835;27;96881;-31
2022/12/31 00:41:16;;;;;;;1.42;0.65;;;;;;;11.30;100.00;100395.34;5054323;27;101077;-30
2022/12/31 00:43:42;;;;;;;0.90;0.45;;;;;;;11.32;100.00;100398.84;5054821;27;100777;-30
2022/12/31 00:46:08;;;;;;;0.70;0.32;;;;;;;11.31;100.00;100397.06;5056148;27;96480;-32
2022/12/31 00:48:34;;;;;;;1.40;0.63;;;;;;;11.32;100.00;100401.53;5054570;27;96929;-31
2022/12/31 00:51:01;;;;;;;0.73;0.55;;;;;;;11.29;100.00;100390.03;5053804;27;101034;-31
2022/12/31 00:53:27;;;;;;;0.88;0.32;;;;;;;11.29;100.00;100384.63;5054267;27;101302;-32
2022/12/31 00:55:59;;;;;;;3.33;0.57;;;;;;;11.29;100.00;100379.19;5054659;27;96592;-31
2022/12/31 00:58:25;;;;;;;0.25;0.20;;;;;;;11.28;100.00;100383.75;5054645;27;96755;-31
2022/12/31 01:00:50;;;;;;;0.75;0.57;;;;;;;11.29;100.00;100393.59;5055734;27;97977;-31
2022/12/31 01:03:15;;;;;;;0.75;0.45;;;;;;;11.28;100.00;100397.31;5055001;27;108743;-31
2022/12/31 01:05:41;;;;;;;1.20;0.60;;;;;;;11.25;100.00;100390.25;5055416;27;102883;-31
2022/12/31 01:08:06;;;;;;;0.73;0.38;;;;;;;11.24;100.00;100387.66;5056223;27;96863;-32
2022/12/31 01:13:15;;;;;;;1.50;0.52;;;;;;;11.23;100.00;100383.22;5055940;27;97031;-33
2022/12/31 01:15:41;;;;;;;0.43;0.32;;;;;;;11.21;100.00;100385.16;5054931;27;96969;-31
2022/12/31 01:18:07;;;;;;;0.70;0.40;;;;;;;11.22;100.00;100387.75;5055639;27;96815;-30
2022/12/31 01:20:42;;;;;;;0.98;0.50;;;;;;;11.20;100.00;100386.13;5053677;27;101269;-32
2022/12/31 01:23:09;;;;;;;4.45;0.50;;;;;;;11.18;100.00;100379.97;5053200;27;101427;-30
2022/12/31 01:25:40;;;;;;;0.32;0.22;;;;;;;11.16;100.00;100390.06;5054119;27;96949;-31
2022/12/31 01:28:07;;;;;;;1.23;0.50;;;;;;;11.17;100.00;100389.94;5055409;27;96717;-31
2022/12/31 01:30:32;;;;;;;0.32;0.20;;;;;;;11.11;100.00;100387.69;5053690;27;102722;-30
2022/12/31 01:32:58;;;;;;;1.38;0.32;;;;;;;11.10;100.00;100388.63;5055304;27;102776;-31
2022/12/31 01:35:23;;;;;;;1.20;0.30;;;;;;;11.09;100.00;100386.06;5055386;27;96575;-31
2022/12/31 01:37:49;;;;;;;0.17;0.15;;;;;;;11.03;100.00;100393.63;5055308;27;96961;-30
2022/12/31 01:40:14;;;;;;;0.63;0.30;;;;;;;11.05;100.00;100401.66;5054377;27;97941;-32
2022/12/31 01:42:40;;;;;;;0.15;0.15;;;;;;;11.00;100.00;100393.84;5055241;27;97230;-30
2022/12/31 01:45:10;;;;;;;3.25;0.28;;;;;;;10.99;100.00;100399.41;5055223;27;96641;-30
2022/12/31 01:47:43;;;;;;;1.05;0.40;;;;;;;10.98;100.00;100400.34;5053738;27;96815;-30
2022/12/31 01:50:19;;;;;;;0.25;0.20;;;;;;;10.93;100.00;100388.97;5053498;27;100919;-30
2022/12/31 01:52:48;;;;;;;1.48;0.30;;;;;;;10.94;100.00;100385.28;5053549;27;100456;-30
2022/12/31 01:55:20;;;;;;;0.73;0.25;;;;;;;10.92;100.00;100379.97;5053709;27;96722;-30
2022/12/31 01:57:48;;;;;;;3.75;0.30;;;;;;;10.89;100.00;100361.22;5054228;27;96716;-30
2022/12/31 02:00:15;;;;;;;0.45;0.25;;;;;;;10.88;100.00;100351.34;5054777;27;100608;-31
2022/12/31 02:02:40;;;;;;;0.40;0.10;;;;;;;10.86;100.00;100344.31;5056873;27;101068;-30
2022/12/31 02:05:15;;;;;;;1.00;0.20;;;;;;;10.85;100.00;100351.59;5058242;27;96582;-31
2022/12/31 02:07:42;;;;;;;5.15;0.50;;;;;;;10.82;100.00;100360.81;5057236;27;96776;-30
2022/12/31 02:10:07;;;;;;;1.10;0.20;;;;;;;10.83;100.00;100365.22;5056723;27;100883;-30
2022/12/31 02:12:33;;;;;;;4.93;0.68;;;;;;;10.79;100.00;100366.41;5058679;27;97214;-31
2022/12/31 02:14:58;;;;;;;2.15;0.20;;;;;;;10.79;100.00;100370.97;5058639;27;96504;-31
2022/12/31 02:17:36;;;;;;;2.28;0.13;;;;;;;10.82;100.00;100387.00;5058578;27;96812;-30
2022/12/31 02:20:35;;;;;;;1.48;0.38;;;;;;;10.80;100.00;100387.13;5056660;27;101072;-30
2022/12/31 02:23:21;;;;;;;0.20;0.17;;;;;;;10.78;100.00;100399.91;5058117;27;97066;-32
2022/12/31 02:25:56;;;;;;;4.20;0.22;;;;;;;10.77;100.00;100430.69;5056798;27;97925;-30
2022/12/31 02:28:36;;;;;;;0.93;0.20;;;;;;;10.75;100.00;100419.09;5058451;27;96585;-31
2022/12/31 02:31:13;;;;;;;0.40;0.30;;;;;;;10.71;100.00;100414.00;5057750;27;97513;-31
2022/12/31 02:33:51;;;;;;;0.10;0.00;;;;;;;10.69;100.00;100414.09;5056574;27;100865;-31
2022/12/31 02:36:25;;;;;;;2.20;0.40;;;;;;;10.67;100.00;100412.47;5056493;27;96649;-31
2022/12/31 02:38:51;;;;;;;4.40;0.50;;;;;;;10.65;100.00;100406.28;5058387;27;96538;-32
2022/12/31 02:44:27;;;;;;;2.10;0.55;;;;;;;10.62;100.00;100431.75;5058150;27;97011;-30
2022/12/31 02:47:04;;;;;;;0.45;0.10;;;;;;;10.58;100.00;100435.63;5058194;27;96623;-31
2022/12/31 02:49:42;;;;;;;0.88;0.28;;;;;;;10.57;100.00;100433.91;5058296;27;96660;-31
2022/12/31 02:52:34;;;;;;;0.13;0.10;;;;;;;10.54;100.00;100431.41;5057617;27;99370;-31
2022/12/31 02:55:16;;;;;;;5.95;0.30;;;;;;;10.54;100.00;100437.69;5057517;27;99311;-30
2022/12/31 02:58:02;;;;;;;0.47;0.28;;;;;;;10.49;100.00;100434.44;5055953;27;96587;-31
2022/12/31 03:03:19;;;;;;;0.10;0.05;;;;;;;10.42;100.00;100438.53;5057700;27;97159;-30
2022/12/31 03:05:47;;;;;;;0.10;0.10;;;;;;;10.43;100.00;100436.69;5055925;27;100926;-31
2022/12/31 03:08:20;;;;;;;0.55;0.32;;;;;;;10.40;100.00;100430.50;5056037;27;96966;-30
2022/12/31 03:10:46;;;;;;;1.95;0.28;;;;;;;10.34;100.00;100411.09;5055694;27;96717;-31
2022/12/31 03:13:11;;;;;;;0.52;0.28;;;;;;;10.34;100.00;100419.19;5056304;27;108858;-31
2022/12/31 03:15:37;;;;;;;0.10;0.00;;;;;;;10.33;100.00;100433.72;5057687;27;97310;-31
2022/12/31 03:18:06;;;;;;;8.05;0.55;;;;;;;10.33;100.00;100425.59;5057261;27;96725;-30
2022/12/31 03:23:25;;;;;;;1.10;0.38;;;;;;;10.27;100.00;100420.56;5055665;27;97132;-31
2022/12/31 03:25:52;;;;;;;1.40;0.30;;;;;;;10.25;100.00;100415.25;5055666;27;101395;-30
2022/12/31 03:28:20;;;;;;;2.53;1.52;;;;;;;10.25;100.00;100407.16;5057439;27;96480;-30
2022/12/31 03:30:51;;;;;;;7.63;2.20;;;;;;;10.26;100.00;100408.88;5055886;27;96926;-31
2022/12/31 03:33:17;;;;;;;3.35;1.80;;;;;;;10.19;100.00;100394.88;5055238;27;99398;-32
2022/12/31 03:35:45;;;;;;;7.00;1.40;;;;;;;10.23;100.00;100400.09;5055282;27;100838;-30
2022/12/31 03:38:11;;;;;;;6.60;1.30;;;;;;;10.25;100.00;100387.31;5055788;27;96730;-31
2022/12/31 03:40:39;;;;;;;1.15;0.43;;;;;;;10.20;100.00;100391.22;5056037;27;96940;-30
2022/12/31 03:43:05;;;;;;;1.42;0.38;;;;;;;10.19;100.00;100394.00;5055384;27;100910;-31
2022/12/31 03:45:30;;;;;;;1.48;0.32;;;;;;;10.18;100.00;100386.88;5056665;27;99243;-32
2022/12/31 03:47:56;;;;;;;3.90;0.57;;;;;;;10.13;100.00;100365.53;5056666;27;96700;-31
2022/12/31 03:50:21;;;;;;;0.43;0.40;;;;;;;10.12;100.00;100369.19;5057049;27;96850;-30
2022/12/31 03:52:47;;;;;;;2.97;0.30;;;;;;;10.09;100.00;100371.25;5056842;27;97788;-30
2022/12/31 03:55:12;;;;;;;0.55;0.20;;;;;;;10.11;100.00;100372.88;5056821;27;97747;-30
2022/12/31 03:57:38;;;;;;;0.60;0.20;;;;;;;10.12;100.00;100389.97;5057004;27;96426;-31
2022/12/31 04:00:06;;;;;;;0.22;0.00;;;;;;;10.09;100.00;100395.59;5057044;27;96865;-31
2022/12/31 04:02:32;;;;;;;0.30;0.13;;;;;;;10.09;100.00;100396.47;5056339;27;99501;-31
2022/12/31 04:04:57;;;;;;;2.45;0.22;;;;;;;10.08;100.00;100386.63;5056611;27;99193;-31
2022/12/31 04:07:22;;;;;;;0.77;0.43;;;;;;;10.08;100.00;100385.72;5056822;27;96661;-32
2022/12/31 04:09:48;;;;;;;0.40;0.38;;;;;;;10.05;100.00;100394.94;5056795;27;96829;-30
2022/12/31 04:12:13;;;;;;;0.22;0.22;;;;;;;10.06;100.00;100393.97;5056049;27;97984;-30
2022/12/31 04:14:38;;;;;;;1.25;0.38;;;;;;;10.06;100.00;100391.28;5056605;27;97745;-30
2022/12/31 04:17:04;;;;;;;0.32;0.32;;;;;;;10.03;100.00;100402.28;5056666;27;96617;-31
2022/12/31 04:19:29;;;;;;;0.17;0.17;;;;;;;10.03;100.00;100394.16;5056462;27;96867;-31
2022/12/31 04:21:54;;;;;;;1.10;0.30;;;;;;;10.07;100.00;100376.75;5055902;27;99394;-31
2022/12/31 04:24:20;;;;;;;0.73;0.55;;;;;;;10.03;100.00;100385.19;5055458;27;97769;-31
2022/12/31 04:26:45;;;;;;;1.35;0.43;;;;;;;10.03;100.00;100371.66;5056673;27;96587;-30
2022/12/31 04:29:10;;;;;;;2.72;0.57;;;;;;;10.07;100.00;100386.72;5056692;27;96865;-31
2022/12/31 04:31:36;;;;;;;2.30;0.50;;;;;;;10.06;100.00;100384.97;5055695;27;99289;-34
2022/12/31 04:34:01;;;;;;;0.60;0.43;;;;;;;10.08;100.00;100380.31;5055825;27;100806;-30
2022/12/31 04:36:27;;;;;;;0.35;0.20;;;;;;;10.08;100.00;100369.50;5055480;27;96594;-30
2022/12/31 04:38:52;;;;;;;1.00;0.45;;;;;;;10.10;100.00;100371.13;5056149;27;96856;-30
2022/12/31 04:41:18;;;;;;;0.75;0.35;;;;;;;10.13;100.00;100373.66;5055987;27;97877;-31
2022/12/31 04:43:52;;;;;;;0.55;0.40;;;;;;;10.15;100.00;100385.25;5054405;27;101374;-31
2022/12/31 04:46:21;;;;;;;0.20;0.20;;;;;;;10.21;100.00;100360.44;5054917;27;96694;-30
2022/12/31 04:48:46;;;;;;;1.10;0.38;;;;;;;10.25;100.00;100380.06;5054617;27;96652;-30
2022/12/31 04:51:12;;;;;;;0.70;0.50;;;;;;;10.30;100.00;100383.38;5055797;27;97936;-30
2022/12/31 04:53:38;;;;;;;0.95;0.70;;;;;;;10.34;100.00;100386.72;5054676;27;100898;-30
2022/12/31 04:56:04;;;;;;;0.68;0.50;;;;;;;10.38;100.00;100382.84;5055942;27;96690;-31
2022/12/31 04:58:29;;;;;;;0.60;0.40;;;;;;;10.39;100.00;100381.84;5054269;27;96953;-31
2022/12/31 05:00:55;;;;;;;0.20;0.20;;;;;;;10.41;100.00;100379.91;5054818;27;99831;-31
2022/12/31 05:03:22;;;;;;;0.35;0.30;;;;;;;10.47;100.00;100397.59;5055591;27;98331;-32
2022/12/31 05:05:48;;;;;;;0.60;0.35;;;;;;;10.47;100.00;100382.22;5055982;27;96559;-31
2022/12/31 05:08:15;;;;;;;0.22;0.22;;;;;;;10.51;100.00;100385.56;5054508;27;97068;-32
2022/12/31 05:10:47;;;;;;;0.45;0.20;;;;;;;10.55;100.00;100404.19;5054077;27;100791;-31
2022/12/31 05:13:12;;;;;;;0.10;0.10;;;;;;;10.54;100.00;100388.06;5053893;27;101097;-30
2022/12/31 05:15:38;;;;;;;0.22;0.20;;;;;;;10.56;100.00;100394.25;5055808;27;96523;-30
2022/12/31 05:18:04;;;;;;;0.05;0.05;;;;;;;10.58;100.00;100381.44;5056141;27;96892;-31
2022/12/31 05:20:30;;;;;;;0.30;0.20;;;;;;;10.62;100.00;100401.94;5055184;27;98854;-31
2022/12/31 05:22:55;;;;;;;0.20;0.10;;;;;;;10.61;100.00;100384.84;5055103;27;97871;-30
2022/12/31 05:25:21;;;;;;;0.10;0.10;;;;;;;10.66;100.00;100399.91;5054724;27;96643;-31
2022/12/31 05:27:46;;;;;;;0.20;0.10;;;;;;;10.68;100.00;100392.50;5055016;27;96957;-32
2022/12/31 05:30:12;;;;;;;0.10;0.10;;;;;;;10.70;100.00;100390.56;5054945;27;99197;-30
2022/12/31 05:32:38;;;;;;;0.10;0.10;;;;;;;10.71;100.00;100387.75;5053778;27;98849;-30
2022/12/31 05:35:04;;;;;;;0.13;0.10;;;;;;;10.73;100.00;100385.81;5052961;27;96610;-31
2022/12/31 05:37:30;;;;;;;0.10;0.10;;;;;;;10.76;100.00;100390.16;5053992;27;96898;-31
2022/12/31 05:39:56;;;;;;;0.10;0.08;;;;;;;10.77;100.00;100398.19;5055018;27;97949;-31
2022/12/31 05:42:22;;;;;;;0.47;0.20;;;;;;;10.82;100.00;100395.13;5053537;27;101109;-31
2022/12/31 05:44:47;;;;;;;0.75;0.30;;;;;;;10.82;100.00;100400.53;5055273;27;96472;-31
2022/12/31 05:47:13;;;;;;;0.05;0.03;;;;;;;10.82;100.00;100387.00;5055290;27;96824;-31
2022/12/31 05:49:39;;;;;;;0.00;0.00;;;;;;;10.82;100.00;100379.75;5054504;27;98204;-31
2022/12/31 05:52:04;;;;;;;0.35;0.17;;;;;;;10.87;100.00;100395.69;5055049;27;96675;-30
2022/12/31 05:54:29;;;;;;;0.52;0.43;;;;;;;10.87;100.00;100393.00;5055329;27;96576;-30
2022/12/31 05:56:55;;;;;;;0.40;0.30;;;;;;;10.89;100.00;100401.00;5054984;27;96811;-30
2022/12/31 05:59:20;;;;;;;0.20;0.20;;;;;;;10.90;100.00;100400.91;5054668;27;98727;-31
2022/12/31 06:01:46;;;;;;;1.02;0.68;;;;;;;10.90;100.00;100403.59;5054798;27;97828;-30
2022/12/31 06:04:11;;;;;;;0.85;0.57;;;;;;;10.91;100.00;100399.91;5055000;27;96664;-31
2022/12/31 06:06:36;;;;;;;3.17;0.77;;;;;;;10.94;100.00;100410.56;5055439;27;96867;-31
2022/12/31 06:09:02;;;;;;;2.00;0.98;;;;;;;10.96;100.00;100413.13;5054638;27;101087;-31
2022/12/31 06:11:27;;;;;;;2.60;0.82;;;;;;;11.01;100.00;100416.38;5054201;27;99084;-31
2022/12/31 06:13:53;;;;;;;1.15;0.82;;;;;;;11.03;100.00;100415.28;5054581;27;96533;-30
2022/12/31 06:16:18;;;;;;;0.85;0.45;;;;;;;11.09;100.00;100418.56;5054615;27;97026;-32
2022/12/31 06:18:46;;;;;;;1.60;0.93;;;;;;;11.12;100.00;100421.06;5054729;27;97892;-30
2022/12/31 06:21:11;;;;;;;0.57;0.43;;;;;;;11.20;100.00;100421.38;5052835;27;100750;-31
2022/12/31 06:23:39;;;;;;;1.13;0.65;;;;;;;11.23;100.00;100427.47;5054254;27;98953;-31
2022/12/31 06:26:05;;;;;;;1.48;0.80;;;;;;;11.29;100.00;100431.56;5054335;27;96865;-32
2022/12/31 06:28:31;;;;;;;1.52;0.90;;;;;;;11.38;100.00;100446.31;5053048;27;101483;-31
2022/12/31 06:31:01;;;;;;;1.17;0.60;;;;;;;11.44;100.00;100430.47;5053253;27;101013;-31
2022/12/31 06:33:27;;;;;;;0.98;0.60;;;;;;;11.45;100.00;100418.66;5053104;27;98052;-31
2022/12/31 06:35:57;;;;;;;1.23;0.52;;;;;;;11.52;100.00;100429.06;5052943;27;96925;-31
2022/12/31 06:38:23;;;;;;;2.17;0.43;;;;;;;11.55;100.00;100420.69;5052414;27;101089;-30
2022/12/31 06:40:49;;;;;;;0.98;0.50;;;;;;;11.57;100.00;100416.03;5052622;27;98810;-30
2022/12/31 06:43:14;;;;;;;0.47;0.15;;;;;;;11.62;100.00;100420.13;5054674;27;96828;-31
2022/12/31 06:45:39;;;;;;;0.32;0.15;;;;;;;11.68;100.00;100424.25;5055564;27;96848;-30
2022/12/31 06:48:06;;;;;;;0.73;0.40;;;;;;;11.71;100.00;100421.31;5057799;27;97489;-31
2022/12/31 06:50:31;;;;;;;0.30;0.20;;;;;;;11.74;100.00;100418.38;5056309;27;101011;-30
2022/12/31 06:52:56;;;;;;;3.55;0.45;;;;;;;11.78;100.00;100416.31;5057946;27;96599;-30
2022/12/31 06:55:22;;;;;;;0.10;0.10;;;;;;;11.80;100.00;100417.94;5057884;27;98995;-31
2022/12/31 06:57:47;;;;;;;0.40;0.20;;;;;;;11.81;100.00;100430.50;5057596;27;97469;-30
2022/12/31 07:00:13;;;;;;;0.60;0.20;;;;;;;11.86;100.00;100439.16;5057481;27;97784;-31
2022/12/31 07:02:51;;;;;;;0.68;0.10;;;;;;;11.90;100.00;100439.84;5056980;27;96566;-30
2022/12/31 07:05:39;;;;;;;0.10;0.08;;;;;;;11.92;100.00;100445.16;5057804;27;96634;-31
2022/12/31 07:08:20;;;;;;;0.10;0.10;;;;;;;11.92;100.00;100443.34;5057249;27;99546;-30
2022/12/31 07:11:17;;;;;;;0.23;0.17;;;;;;;11.94;100.00;100454.94;5055968;27;100888;-31
2022/12/31 07:13:58;;;;;;;0.20;0.10;;;;;;;11.92;100.00;100447.88;5057924;27;96783;-31
2022/12/31 07:16:45;;;;;;;0.30;0.13;;;;;;;11.96;100.00;100457.53;5056262;27;96813;-30
2022/12/31 07:19:35;;;;;;;0.10;0.10;;;;;;;11.96;100.00;100447.53;5057408;27;98657;-32
2022/12/31 07:22:01;;;;;;;0.30;0.30;;;;;;;12.00;100.00;100451.75;5055725;27;100932;-31
2022/12/31 07:24:27;;;;;;;0.20;0.20;;;;;;;11.98;100.00;100447.44;5056822;27;96865;-31
2022/12/31 07:27:01;;;;;;;1.00;0.38;;;;;;;12.03;100.00;100447.94;5057245;27;96848;-30
2022/12/31 07:29:47;;;;;;;0.65;0.30;;;;;;;12.05;100.00;100449.56;5056450;27;99862;-30
2022/12/31 07:32:29;;;;;;;0.88;0.57;;;;;;;12.07;100.00;100458.47;5056852;27;99080;-30
2022/12/31 07:35:23;;;;;;;0.45;0.45;;;;;;;12.07;100.00;100444.03;5057468;27;96828;-31
2022/12/31 07:37:58;;;;;;;1.05;0.35;;;;;;;12.09;100.00;100456.50;5057732;27;96897;-30
2022/12/31 07:40:31;;;;;;;0.68;0.40;;;;;;;12.09;100.00;100452.94;5056977;27;98072;-31
2022/12/31 07:43:08;;;;;;;0.63;0.45;;;;;;;12.10;100.00;100441.09;5057307;27;97315;-31
2022/12/31 07:45:41;;;;;;;2.03;0.43;;;;;;;12.06;100.00;100437.75;5057004;27;96489;-31
2022/12/31 07:48:21;;;;;;;0.38;0.30;;;;;;;12.07;100.00;100449.47;5057796;27;96519;-30
2022/12/31 07:50:46;;;;;;;0.13;0.13;;;;;;;12.09;100.00;100453.78;5055400;27;101055;-32
2022/12/31 07:53:12;;;;;;;0.43;0.30;;;;;;;12.09;100.00;100439.38;5056566;27;99033;-30
2022/12/31 07:55:37;;;;;;;4.22;0.25;;;;;;;12.08;100.00;100453.91;5056356;27;96619;-30
2022/12/31 07:58:15;;;;;;;1.33;0.50;;;;;;;12.06;100.00;100454.03;5056433;27;96876;-30
2022/12/31 08:00:40;;;;;;;3.65;0.30;;;;;;;12.05;100.00;100457.72;5055221;27;99120;-30
2022/12/31 08:03:46;;;;;;;1.20;0.40;;;;;;;12.06;100.00;100480.28;5056333;27;98990;-32
2022/12/31 08:06:32;;;;;;;0.38;0.22;;;;;;;12.03;100.00;100486.81;5056429;27;96722;-31
2022/12/31 08:09:10;;;;;;;0.82;0.38;;;;;;;12.05;100.00;100490.28;5055146;27;96750;-31
2022/12/31 08:11:56;;;;;;;0.20;0.20;;;;;;;12.05;100.00;100503.88;5053655;27;100988;-31
2022/12/31 08:14:21;;;;;;;0.10;0.10;;;;;;;12.04;100.00;100510.28;5054148;27;100715;-31
2022/12/31 08:16:47;;;;;;;2.05;0.38;;;;;;;12.03;100.00;100504.97;5055921;27;96692;-31
2022/12/31 08:19:29;;;;;;;1.27;0.30;;;;;;;12.01;100.00;100513.22;5056575;27;96836;-30
2022/12/31 08:22:16;;;;;;;0.65;0.10;;;;;;;12.01;100.00;100526.81;5055161;27;99399;-31
2022/12/31 08:24:44;;;;;;;0.10;0.10;;;;;;;12.02;100.00;100530.38;5056103;27;97802;-31
2022/12/31 08:27:27;;;;;;;0.73;0.28;;;;;;;12.00;100.00;100535.91;5056330;27;96623;-31
2022/12/31 08:30:06;;;;;;;5.63;0.50;;;;;;;12.00;100.00;100535.06;5055158;27;97152;-31
2022/12/31 08:32:42;;;;;;;2.00;0.40;;;;;;;11.99;100.00;100536.91;5051874;27;102791;-31
2022/12/31 08:35:44;;;;;;;3.83;0.28;;;;;;;12.02;100.00;100552.09;5051698;27;100688;-30
2022/12/31 08:38:33;;;;;;;1.58;0.30;;;;;;;12.01;100.00;100564.81;5054020;27;97190;-33
2022/12/31 08:41:27;;;;;;;2.50;0.43;;;;;;;12.02;100.00;100563.81;5052522;27;97188;-31
2022/12/31 08:44:10;;;;;;;0.73;0.30;;;;;;;12.02;100.00;100561.09;5051945;27;100959;-30
2022/12/31 08:46:54;;;;;;;3.17;0.55;;;;;;;12.03;100.00;100567.41;5054408;27;101132;-30
2022/12/31 08:49:20;;;;;;;4.03;0.80;;;;;;;12.06;100.00;100576.19;5054295;27;96519;-30
2022/12/31 08:51:46;;;;;;;4.45;0.50;;;;;;;12.11;100.00;100584.00;5055780;27;96943;-30
2022/12/31 08:54:12;;;;;;;7.40;0.60;;;;;;;12.13;100.00;100590.19;5055804;27;97512;-31
2022/12/31 08:57:03;;;;;;;3.03;0.30;;;;;;;12.15;100.00;100581.94;5054143;27;102920;-30
2022/12/31 09:00:07;;;;;;;2.92;0.50;;;;;;;12.18;100.00;100581.69;5055970;27;96467;-31
2022/12/31 09:02:47;;;;;;;0.38;0.20;;;;;;;12.20;100.00;100571.59;5023649;27;96871;-31
2022/12/31 09:05:15;;;;;;;1.42;0.25;;;;;;;12.23;100.00;100574.13;5055441;27;98563;-30
2022/12/31 09:08:22;;;;;;;2.83;0.25;;;;;;;12.26;100.00;100565.72;5055848;27;97441;-30
2022/12/31 09:10:56;;;;;;;0.45;0.30;;;;;;;12.28;100.00;100580.06;5034019;27;96826;-31
2022/12/31 09:13:27;;;;;;;0.63;0.20;;;;;;;12.32;100.00;100562.56;5053151;27;97101;-32
2022/12/31 09:16:11;;;;;;;0.30;0.20;;;;;;;12.35;100.00;100567.78;5049478;27;100604;-34
2022/12/31 09:18:39;;;;;;;1.65;0.30;;;;;;;12.38;100.00;100569.41;5050982;27;101192;-31
2022/12/31 09:21:07;;;;;;;3.30;0.30;;;;;;;12.43;100.00;100575.34;5051034;27;97188;-31
2022/12/31 09:23:33;;;;;;;0.40;0.20;;;;;;;12.48;100.00;100570.44;5051260;27;97109;-31
2022/12/31 09:26:12;;;;;;;1.38;0.28;;;;;;;12.51;100.00;100567.50;5051002;27;97633;-30
2022/12/31 09:28:57;;;;;;;0.20;0.20;;;;;;;12.55;100.00;100585.31;5032277;27;101032;-32
2022/12/31 09:31:35;;;;;;;0.25;0.25;;;;;;;12.60;100.00;100595.84;5051026;27;96751;-33
2022/12/31 09:34:46;;;;;;;1.45;0.98;;;;;;;12.66;100.00;100595.41;5052412;27;96920;-31
2022/12/31 09:37:27;;;;;;;4.55;3.08;;;;;;;12.68;100.00;100601.56;5052389;27;97468;-30
2022/12/31 09:40:00;;;;;;;1.20;0.70;;;;;;;12.72;100.00;100600.34;5049766;27;101147;-33
2022/12/31 09:42:46;;;;;;;3.13;0.70;;;;;;;12.74;100.00;100603.84;5051648;27;97153;-30
2022/12/31 09:45:47;;;;;;;0.55;0.30;;;;;;;12.80;100.00;100594.34;5034328;27;96900;-30
2022/12/31 09:48:27;;;;;;;1.08;0.43;;;;;;;12.86;100.00;100602.03;5032784;28;101556;-30
2022/12/31 09:51:20;;;;;;;0.45;0.38;;;;;;;12.89;100.00;100597.22;5032808;28;98817;-31
2022/12/31 09:53:54;;;;;;;4.22;0.82;;;;;;;12.93;100.00;100609.63;5032643;28;97129;-33
2022/12/31 09:56:38;;;;;;;1.55;0.68;;;;;;;12.93;100.00;100617.78;5032816;28;97085;-31
2022/12/31 09:59:28;;;;;;;1.17;0.70;;;;;;;12.95;100.00;100623.97;5030538;28;100948;-32
2022/12/31 10:02:23;;;;;;;2.20;0.93;;;;;;;13.01;100.00;100622.63;5030775;28;101054;-30
2022/12/31 10:05:10;;;;;;;0.52;0.47;;;;;;;12.99;100.00;100627.34;5032648;28;97136;-30
2022/12/31 10:07:53;;;;;;;3.78;0.25;;;;;;;12.97;100.00;100607.56;5032886;28;97117;-30
2022/12/31 10:10:39;;;;;;;3.15;0.50;;;;;;;13.00;100.00;100610.03;5030308;28;99373;-32
2022/12/31 10:13:04;;;;;;;2.10;0.52;;;;;;;13.05;100.00;100621.41;5028984;28;100932;-32
2022/12/31 10:15:45;;;;;;;1.40;0.70;;;;;;;13.06;100.00;100623.19;5031487;28;96982;-31
2022/12/31 10:18:32;;;;;;;1.35;0.68;;;;;;;13.08;100.00;100623.91;5031774;28;96900;-31
2022/12/31 10:21:25;;;;;;;3.60;0.52;;;;;;;13.11;100.00;100631.84;5032368;27;101088;-32
2022/12/31 10:24:06;;;;;;;1.20;0.82;;;;;;;13.12;100.00;100635.44;5034301;28;101062;-30
2022/12/31 10:26:53;;;;;;;1.10;0.60;;;;;;;13.14;100.00;100647.06;5037216;28;97066;-32
2022/12/31 10:29:33;;;;;;;1.10;0.77;;;;;;;13.16;100.00;100628.78;5038518;28;96864;-32
2022/12/31 10:32:17;;;;;;;1.85;0.90;;;;;;;13.15;100.00;100637.91;5037393;28;98784;-33
2022/12/31 10:34:59;;;;;;;4.00;1.10;;;;;;;13.18;100.00;100629.53;5036376;28;100472;-30
2022/12/31 10:37:53;;;;;;;8.32;1.25;;;;;;;13.18;100.00;100644.00;5037697;28;96505;-30
2022/12/31 10:40:33;;;;;;;2.80;0.90;;;;;;;13.16;100.00;100643.25;5037503;28;96716;-31
2022/12/31 10:43:49;;;;;;;2.97;1.20;;;;;;;13.16;100.00;100661.41;5037510;28;98035;-30
2022/12/31 10:46:26;;;;;;;5.53;1.10;;;;;;;13.13;100.00;100662.53;5002706;27;97665;-30
2022/12/31 10:49:41;;;;;;;4.57;1.27;;;;;;;13.12;100.00;100647.16;5038258;28;96726;-30
2022/12/31 10:52:25;;;;;;;1.85;0.60;;;;;;;13.12;100.00;100660.75;5030758;27;97093;-31
2022/12/31 10:55:24;;;;;;;1.83;0.70;;;;;;;13.14;100.00;100660.66;5037137;28;97988;-32
2022/12/31 10:58:13;;;;;;;1.67;0.77;;;;;;;13.15;100.00;100673.25;5020257;28;99043;-30
2022/12/31 11:00:46;;;;;;;3.55;1.02;;;;;;;13.14;100.00;100669.69;5037331;28;96588;-31
2022/12/31 11:03:36;;;;;;;2.17;0.75;;;;;;;13.14;100.00;100660.66;5036057;28;96754;-30
2022/12/31 11:06:27;;;;;;;1.98;0.88;;;;;;;13.15;100.00;100660.53;5036893;28;98008;-30
2022/12/31 11:09:14;;;;;;;2.92;1.30;;;;;;;13.20;100.00;100668.34;5036949;27;99429;-31
2022/12/31 11:12:04;;;;;;;3.38;0.90;;;;;;;13.23;100.00;100661.78;5037737;28;96772;-30
2022/12/31 11:14:42;;;;;;;1.33;0.80;;;;;;;13.26;100.00;100648.84;5037490;27;96677;-30
2022/12/31 11:17:30;;;;;;;2.92;0.57;;;;;;;13.32;100.00;100647.53;5037036;27;97978;-30
2022/12/31 11:20:17;;;;;;;5.20;1.42;;;;;;;13.36;100.00;100657.22;5036760;27;99210;-32
2022/12/31 11:23:00;;;;;;;3.90;0.90;;;;;;;13.35;100.00;100661.78;5036741;27;96701;-31
2022/12/31 11:25:52;;;;;;;5.13;1.13;;;;;;;13.35;100.00;100650.03;5036124;28;96812;-30
2022/12/31 11:28:42;;;;;;;2.63;1.27;;;;;;;13.36;100.00;100657.22;5035390;28;99245;-30
2022/12/31 11:31:22;;;;;;;1.73;0.85;;;;;;;13.36;100.00;100640.88;5035389;28;98900;-30
2022/12/31 11:34:12;;;;;;;3.15;0.68;;;;;;;13.38;100.00;100650.66;5034095;28;96710;-33
2022/12/31 11:37:16;;;;;;;5.50;1.40;;;;;;;13.36;100.00;100651.75;5036764;28;96815;-32
2022/12/31 11:39:58;;;;;;;5.22;1.30;;;;;;;13.40;100.00;100649.69;5035176;28;101187;-32
2022/12/31 11:43:08;;;;;;;1.85;1.05;;;;;;;13.40;100.00;100633.38;5036488;27;99116;-30
2022/12/31 11:45:54;;;;;;;2.33;1.42;;;;;;;13.42;100.00;100631.38;5036938;28;96548;-32
2022/12/31 11:48:50;;;;;;;5.55;0.98;;;;;;;13.43;100.00;100650.31;5035546;28;96594;-29
2022/12/31 11:51:15;;;;;;;5.95;1.30;;;;;;;13.43;100.00;100639.41;5036384;28;97612;-30
2022/12/31 11:53:57;;;;;;;2.15;1.15;;;;;;;13.42;100.00;100628.66;5036697;27;99698;-31
2022/12/31 11:56:28;;;;;;;1.05;0.75;;;;;;;13.41;100.00;100625.06;5035409;28;96624;-30